Big Piney, WY

5:18 PM MDT on July 30, 2014 (GMT -0600)
Big Piney-Marbleton (KBPI) Elev 6969 ft | 42.59 °N, 110.11 °W | Change Station

Current weather conditions updated 25 minutes ago

Overcast
Overcast
58 °F
Feels Like 58 °F
N
10
Wind Variable Wind from WNW

Tomorrow is forecast to be Much Warmer than today.

Today
High -- | Low -- °F
--% Chance of Precip.
Yesterday
High -- | Low -- °F
Precip. -- in
6:10 AM 8:42 PM
Waxing Crescent, 14% visible
Pressure 30.21 in
Visibility 10.0 miles
Clouds Overcast 9500 ft
Dew Point 50 °F
Humidity 75%
Rainfall 0.06 in
Snow Depth Not available.
UV 2 out of 12
Pollen 5.70 out of 12
Air Quality Not available.
Flu Activity Not available.
METAR KBPI 302253Z AUTO 30009KT 10SM OVC095 14/10 A3043 RMK AO2 RAE12 SLP230 P0000 T01440100

More Conditions Fewer Conditions

Pressure 30.21 in
Visibility 10.0 miles
Clouds Overcast 9500 ft
Dew Point 50 °F
Humidity 75%
Rainfall 0.06 in
Snow Depth Not available.
UV 2 out of 12
Pollen 5.70 out of 12
Air Quality Not available.
Flu Activity Not available.
METAR KBPI 302253Z AUTO 30009KT 10SM OVC095 14/10 A3043 RMK AO2 RAE12 SLP230 P0000 T01440100

More Conditions Fewer Conditions

10-Day Weather Forecast

Almanac

Astronomy

Jul. 30, 2014 Rise Set
Actual Time 6:10 AM MDT 8:42 PM MDT
Civil Twilight 5:38 AM MDT 9:14 PM MDT
Nautical Twilight 4:58 AM MDT 9:54 PM MDT
Astronomical Twilight 4:12 AM MDT 10:39 PM MDT
Moon 9:51 AM MDT 10:20 PM MDT
Length of Visible Light 15h 36m
Length of Day
14h 32m
Tomorrow will be 2m 8s shorter.
Waxing Crescent, 14% of the Moon is Illuminated
Today
Waxing Crescent
Aug 3
First Quarter
Aug 10
Full
Aug 17
Last Quarter
Aug 25
New

Today's Extremes

State Highs State Lows

Community

WunderPhotos

Upload Photos

1,739,248 photos uploaded!

Nearby

Snow Depth

Station Depth Elevation
Blind Bull Summit 1 in 8900 ft
Willow Creek 10 in 8450 ft
Loomis Park 0 in 8240 ft
Salt River Summit 0 in 7600 ft
Hams Fork 0 in 7840 ft

Earthquake Activity

City Distance Mag. Time & Date
No recent earthquake activity has been reported nearby.
Minimum magnitude displayed is 2.5.

Coastal Water Temperatures

Place Temperature
No Stations Reporting

Nearby Weather Stations

Station Location Temp. Dew Point Humidity Wind Precip. Elev Updated Type
Marbleton, WY 57.0 °F 51 °F 80% South  at  2.0 mph 0.04 in / hr 6896 ft 5:18 PM MDT Rapid Fire
Little Piney Subdivision, Big Piney, WY 58.0 °F 51 °F 77% WSW  at  4.0 mph 0.00 in / hr 7044 ft 5:18 PM MDT Normal
HADS PINEDALE 1 NE WY, Pinedale, WY 63 °F - - North  at  - 0.01 in / hr 7310 ft 4:00 PM MDT MADIS

Show More Stations Show Fewer Stations